createdAt,value
2019-04-29T00:02:20.715Z,7.10
2019-04-29T00:04:53.742Z,7.10
2019-04-29T00:07:22.573Z,7.10
2019-04-29T00:09:53.616Z,7.10
2019-04-29T00:12:37.425Z,7.10
2019-04-29T00:15:19.520Z,7.00
2019-04-29T00:17:58.362Z,7.00
2019-04-29T00:20:39.526Z,7.10
2019-04-29T00:23:17.719Z,7.00
2019-04-29T00:25:47.259Z,7.00
2019-04-29T00:28:27.531Z,7.00
2019-04-29T00:31:01.336Z,6.90
2019-04-29T00:33:33.772Z,6.90
2019-04-29T00:36:10.548Z,6.80
2019-04-29T00:39:03.120Z,6.80
2019-04-29T00:42:09.054Z,6.80
2019-04-29T00:44:38.575Z,6.80
2019-04-29T00:47:07.677Z,6.90
2019-04-29T00:49:40.448Z,6.80
2019-04-29T00:52:15.400Z,6.90
2019-04-29T00:55:05.007Z,6.90
2019-04-29T00:57:38.179Z,6.80
2019-04-29T01:00:22.004Z,6.80
2019-04-29T01:03:00.310Z,6.80
2019-04-29T01:05:47.666Z,6.80
2019-04-29T01:08:34.163Z,6.80
2019-04-29T01:11:15.249Z,6.70
2019-04-29T01:13:54.776Z,6.70
2019-04-29T01:16:27.071Z,6.70
2019-04-29T01:19:07.296Z,6.60
2019-04-29T01:21:41.095Z,6.50
2019-04-29T01:24:20.234Z,6.50
2019-04-29T01:27:21.463Z,6.40
2019-04-29T01:29:51.119Z,6.40
2019-04-29T01:32:28.514Z,6.40
2019-04-29T01:35:01.765Z,6.30
2019-04-29T01:37:44.478Z,6.20
2019-04-29T01:40:41.232Z,6.20
2019-04-29T01:43:19.044Z,6.20
2019-04-29T01:48:24.487Z,6.00
2019-04-29T01:50:55.760Z,6.00
2019-04-29T01:53:30.907Z,6.00
2019-04-29T01:56:17.342Z,6.00
2019-04-29T01:58:53.329Z,6.00
2019-04-29T02:01:16.195Z,5.90
2019-04-29T02:04:00.809Z,5.90
2019-04-29T02:06:33.598Z,5.80
2019-04-29T02:09:04.997Z,5.70
2019-04-29T02:11:41.855Z,5.70
2019-04-29T02:14:19.587Z,5.50
2019-04-29T02:17:02.802Z,5.50
2019-04-29T02:19:32.361Z,5.50
2019-04-29T02:22:30.762Z,5.40
2019-04-29T02:25:11.840Z,5.50
2019-04-29T02:27:53.863Z,5.40
2019-04-29T02:30:48.170Z,5.40
2019-04-29T02:33:16.755Z,5.20
2019-04-29T02:35:48.821Z,5.20
2019-04-29T02:38:35.464Z,5.20
2019-04-29T02:41:22.198Z,5.10
2019-04-29T02:43:57.364Z,5.00
2019-04-29T02:46:31.075Z,5.00
2019-04-29T02:49:11.063Z,4.90
2019-04-29T02:51:57.314Z,4.80
2019-04-29T02:55:06.215Z,4.80
2019-04-29T02:58:17.641Z,4.70
2019-04-29T02:59:48.867Z,4.70
2019-04-29T03:02:39.726Z,4.70
2019-04-29T03:05:44.355Z,4.70
2019-04-29T03:08:14.369Z,4.70
2019-04-29T03:11:02.928Z,4.70
2019-04-29T03:13:45.360Z,4.60
2019-04-29T03:16:13.612Z,4.60
2019-04-29T03:18:53.304Z,4.60
2019-04-29T03:21:56.099Z,4.60
2019-04-29T03:24:35.942Z,4.60
2019-04-29T03:27:04.057Z,4.70
2019-04-29T03:29:37.220Z,4.70
2019-04-29T03:32:37.509Z,4.70
2019-04-29T03:34:49.646Z,4.60
2019-04-29T03:37:21.424Z,4.60
2019-04-29T03:39:53.079Z,4.50
2019-04-29T03:42:33.115Z,4.50
2019-04-29T03:45:09.832Z,4.40
2019-04-29T03:47:49.611Z,4.40
2019-04-29T03:50:32.476Z,4.40
2019-04-29T03:52:53.040Z,4.30
2019-04-29T03:55:39.670Z,4.30
2019-04-29T03:58:11.405Z,4.30
2019-04-29T04:00:44.137Z,4.30
2019-04-29T04:03:38.339Z,4.30
2019-04-29T04:06:39.554Z,4.30
2019-04-29T04:09:24.763Z,4.20
2019-04-29T04:12:11.753Z,4.30
2019-04-29T04:14:46.823Z,4.20
2019-04-29T04:17:26.396Z,4.20
2019-04-29T04:20:06.345Z,4.10
2019-04-29T04:22:47.841Z,4.10
2019-04-29T04:25:38.836Z,4.00
2019-04-29T04:28:15.145Z,4.00
2019-04-29T04:30:50.325Z,3.90
2019-04-29T04:33:37.033Z,3.90
2019-04-29T04:36:14.269Z,3.80
2019-04-29T04:38:59.128Z,3.80
2019-04-29T04:41:47.783Z,3.80
2019-04-29T04:44:20.925Z,3.70
2019-04-29T04:47:02.060Z,3.70
2019-04-29T04:49:34.935Z,3.70
2019-04-29T04:52:23.096Z,3.60
2019-04-29T04:54:59.978Z,3.70
2019-04-29T04:57:41.263Z,3.60
2019-04-29T05:00:24.112Z,3.60
2019-04-29T05:03:02.375Z,3.60
2019-04-29T05:05:42.865Z,3.70
2019-04-29T05:08:25.810Z,3.70
2019-04-29T05:11:16.875Z,3.70
2019-04-29T05:13:29.996Z,3.80
2019-04-29T05:16:07.682Z,3.70
2019-04-29T05:18:37.114Z,3.80
2019-04-29T05:21:13.195Z,3.80
2019-04-29T05:23:51.268Z,3.90
2019-04-29T05:26:33.574Z,3.90
2019-04-29T05:29:23.337Z,4.00
2019-04-29T05:31:58.545Z,4.10
2019-04-29T05:34:45.918Z,4.30
2019-04-29T05:37:20.575Z,4.40
2019-04-29T05:39:59.310Z,4.50
2019-04-29T05:42:31.574Z,4.60
2019-04-29T05:45:23.321Z,4.70
2019-04-29T05:48:18.721Z,4.90
2019-04-29T05:51:02.315Z,5.00
2019-04-29T05:53:47.298Z,5.10
2019-04-29T05:56:19.802Z,5.20
2019-04-29T05:58:53.310Z,5.30
2019-04-29T06:01:33.347Z,5.40
2019-04-29T06:04:16.256Z,5.50
2019-04-29T06:06:45.175Z,5.60
2019-04-29T06:09:23.105Z,5.70
2019-04-29T06:11:52.235Z,5.80
2019-04-29T06:14:23.098Z,6.00
2019-04-29T06:17:02.845Z,6.10
2019-04-29T06:19:41.086Z,6.20
2019-04-29T06:22:15.751Z,6.30
2019-04-29T06:24:50.048Z,6.40
2019-04-29T06:27:34.840Z,6.60
2019-04-29T06:30:10.099Z,6.70
2019-04-29T06:32:38.992Z,6.90
2019-04-29T06:35:14.241Z,7.10
2019-04-29T06:37:45.537Z,7.40
2019-04-29T06:40:17.794Z,7.60
2019-04-29T06:42:53.284Z,7.60
2019-04-29T06:45:24.090Z,7.70
2019-04-29T06:47:58.350Z,7.80
2019-04-29T06:50:29.093Z,7.70
2019-04-29T06:53:05.661Z,7.80
2019-04-29T06:55:37.322Z,7.90
2019-04-29T06:58:15.998Z,7.90
2019-04-29T07:00:50.960Z,8.00
2019-04-29T07:03:25.454Z,8.10
2019-04-29T07:05:58.125Z,8.10
2019-04-29T07:08:32.957Z,8.20
2019-04-29T07:11:14.488Z,8.30
2019-04-29T07:13:46.599Z,8.30
2019-04-29T07:16:26.811Z,8.40
2019-04-29T07:18:58.940Z,8.40
2019-04-29T07:22:06.946Z,8.30
2019-04-29T07:24:30.736Z,8.40
2019-04-29T07:27:09.314Z,8.80
2019-04-29T07:29:45.381Z,8.80
2019-04-29T07:32:26.678Z,8.70
2019-04-29T07:34:55.619Z,8.80
2019-04-29T07:37:34.141Z,9.00
2019-04-29T07:40:09.371Z,8.80
2019-04-29T07:42:38.942Z,8.80
2019-04-29T07:45:23.909Z,8.90
2019-04-29T07:48:06.303Z,9.10
2019-04-29T07:50:41.549Z,9.20
2019-04-29T07:56:10.768Z,9.50
2019-04-29T07:58:48.649Z,9.60
2019-04-29T08:01:24.478Z,9.70
2019-04-29T08:03:51.477Z,10.10
2019-04-29T08:06:24.031Z,10.00
2019-04-29T08:09:08.010Z,10.20
2019-04-29T08:11:36.890Z,10.20
2019-04-29T08:14:09.038Z,10.00
2019-04-29T08:16:52.373Z,10.60
2019-04-29T08:19:29.249Z,10.90
2019-04-29T08:21:57.694Z,11.00
2019-04-29T08:24:30.600Z,10.90
2019-04-29T08:27:02.467Z,10.80
2019-04-29T08:29:39.707Z,10.80
2019-04-29T08:32:13.805Z,10.60
2019-04-29T08:34:48.207Z,10.80
2019-04-29T08:37:26.512Z,10.50
2019-04-29T08:40:14.879Z,10.50
2019-04-29T08:42:32.481Z,10.60
2019-04-29T08:45:45.452Z,10.40
2019-04-29T08:48:18.226Z,10.50
2019-04-29T08:50:51.678Z,10.90
2019-04-29T08:53:20.487Z,10.90
2019-04-29T08:55:54.470Z,11.10
2019-04-29T08:58:29.521Z,10.80
2019-04-29T09:01:06.897Z,10.80
2019-04-29T09:03:44.900Z,10.90
2019-04-29T09:06:13.623Z,11.10
2019-04-29T09:08:55.362Z,11.00
2019-04-29T09:11:34.210Z,11.20
2019-04-29T09:14:04.858Z,11.10
2019-04-29T09:16:39.887Z,11.00
2019-04-29T09:19:29.274Z,11.10
2019-04-29T09:22:00.121Z,11.10
2019-04-29T09:24:28.774Z,11.10
2019-04-29T09:27:04.972Z,11.70
2019-04-29T09:30:29.764Z,12.30
2019-04-29T09:32:17.696Z,12.50
2019-04-29T09:34:48.507Z,12.20
2019-04-29T09:37:22.864Z,12.10
2019-04-29T09:39:50.657Z,11.90
2019-04-29T09:42:49.691Z,12.10
2019-04-29T09:45:28.823Z,12.30
2019-04-29T09:48:08.685Z,12.20
2019-04-29T09:50:41.035Z,12.40
2019-04-29T09:53:20.634Z,12.40
2019-04-29T09:55:50.745Z,12.40
2019-04-29T09:58:24.475Z,12.50
2019-04-29T10:01:31.813Z,12.40
2019-04-29T10:04:23.421Z,12.30
2019-04-29T10:06:54.933Z,12.30
2019-04-29T10:09:23.677Z,12.20
2019-04-29T10:11:52.931Z,12.00
2019-04-29T10:14:25.813Z,12.60
2019-04-29T10:17:29.445Z,12.30
2019-04-29T10:21:21.208Z,12.30
2019-04-29T10:22:53.670Z,12.10
2019-04-29T10:25:21.232Z,12.40
2019-04-29T10:27:55.128Z,12.70
2019-04-29T10:30:31.157Z,12.80
2019-04-29T10:33:12.805Z,13.30
2019-04-29T10:35:46.688Z,12.90
2019-04-29T10:38:15.398Z,12.60
2019-04-29T10:41:13.801Z,12.60
2019-04-29T10:44:13.122Z,12.50
2019-04-29T10:47:05.615Z,12.60
2019-04-29T10:49:49.796Z,12.60
2019-04-29T10:52:22.117Z,12.60
2019-04-29T10:54:51.172Z,12.90
2019-04-29T10:57:30.685Z,13.10
2019-04-29T11:00:23.461Z,13.30
2019-04-29T11:03:01.632Z,13.70
2019-04-29T11:06:00.341Z,13.60
2019-04-29T11:08:43.241Z,13.50
2019-04-29T11:11:24.121Z,13.30
2019-04-29T11:13:50.609Z,13.30
2019-04-29T11:16:29.471Z,13.40
2019-04-29T11:19:05.499Z,13.60
2019-04-29T11:21:38.924Z,13.70
2019-04-29T11:24:32.326Z,13.60
2019-04-29T11:27:18.800Z,13.30
2019-04-29T11:29:50.648Z,13.40
2019-04-29T11:32:39.537Z,13.50
2019-04-29T11:35:28.464Z,13.30
2019-04-29T11:37:59.836Z,13.50
2019-04-29T11:40:43.166Z,13.60
2019-04-29T11:43:10.982Z,13.80
2019-04-29T11:45:40.050Z,13.90
2019-04-29T11:48:11.687Z,13.90
2019-04-29T11:50:49.975Z,13.90
2019-04-29T11:53:24.771Z,13.70
2019-04-29T11:55:58.685Z,13.90
2019-04-29T11:58:35.088Z,14.10
2019-04-29T12:01:20.217Z,13.90
2019-04-29T12:03:56.355Z,13.70
2019-04-29T12:06:37.396Z,13.90
2019-04-29T12:09:01.173Z,14.10
2019-04-29T12:11:49.717Z,13.90
2019-04-29T12:14:46.275Z,14.00
2019-04-29T12:17:23.345Z,14.20
2019-04-29T12:20:06.822Z,14.10
2019-04-29T12:22:48.177Z,14.40
2019-04-29T12:25:11.536Z,14.20
2019-04-29T12:27:42.456Z,14.30
2019-04-29T12:30:23.798Z,14.40
2019-04-29T12:33:04.954Z,14.40
2019-04-29T12:35:51.903Z,14.70
2019-04-29T12:38:40.366Z,14.80
2019-04-29T12:41:54.970Z,14.80
2019-04-29T12:44:49.654Z,14.90
2019-04-29T12:47:42.528Z,14.90
2019-04-29T12:50:17.500Z,15.00
2019-04-29T12:52:48.592Z,15.20
2019-04-29T12:55:39.292Z,15.40
2019-04-29T12:57:52.239Z,15.10
2019-04-29T13:00:46.773Z,15.10
2019-04-29T13:03:12.222Z,14.80
2019-04-29T13:06:02.492Z,14.70
2019-04-29T13:08:54.660Z,14.60
2019-04-29T13:11:19.095Z,14.60
2019-04-29T13:14:01.250Z,14.60
2019-04-29T13:16:40.145Z,14.60
2019-04-29T13:19:31.236Z,14.50
2019-04-29T13:22:05.345Z,14.50
2019-04-29T13:24:47.763Z,14.30
2019-04-29T13:27:25.469Z,14.40
2019-04-29T13:29:53.682Z,14.30
2019-04-29T13:32:29.722Z,14.70
2019-04-29T13:35:10.555Z,14.80
2019-04-29T13:37:55.534Z,14.70
2019-04-29T13:40:32.984Z,14.70
2019-04-29T13:43:03.356Z,14.60
2019-04-29T13:45:49.372Z,14.70
2019-04-29T13:51:36.021Z,14.90
2019-04-29T13:54:05.828Z,14.70
2019-04-29T13:56:39.393Z,14.60
2019-04-29T13:59:13.556Z,14.50
2019-04-29T14:02:01.376Z,14.70
2019-04-29T14:04:49.314Z,14.50
2019-04-29T14:07:20.865Z,14.80
2019-04-29T14:09:54.774Z,14.70
2019-04-29T14:15:11.713Z,14.60
2019-04-29T14:17:49.093Z,14.70
2019-04-29T14:20:22.307Z,14.60
2019-04-29T14:23:08.957Z,14.50
2019-04-29T14:25:37.682Z,14.40
2019-04-29T14:28:06.311Z,14.40
2019-04-29T14:30:43.743Z,14.40
2019-04-29T14:33:13.883Z,14.40
2019-04-29T14:35:59.654Z,14.40
2019-04-29T14:38:28.314Z,14.60
2019-04-29T14:41:00.749Z,14.80
2019-04-29T14:44:00.548Z,14.80
2019-04-29T14:46:58.648Z,14.90
2019-04-29T14:49:39.812Z,15.00
2019-04-29T14:52:17.052Z,14.70
2019-04-29T14:55:07.180Z,14.80
2019-04-29T14:57:39.551Z,14.60
2019-04-29T15:00:16.141Z,14.50
2019-04-29T15:02:55.826Z,14.50
2019-04-29T15:05:32.737Z,14.50
2019-04-29T15:08:04.440Z,14.50
2019-04-29T15:10:39.463Z,14.40
2019-04-29T15:13:21.107Z,14.40
2019-04-29T15:16:16.325Z,14.40
2019-04-29T15:18:58.491Z,14.40
2019-04-29T15:21:45.482Z,14.30
2019-04-29T15:24:17.686Z,14.30
2019-04-29T15:26:59.636Z,14.40
2019-04-29T15:29:49.321Z,14.40
2019-04-29T15:32:37.638Z,14.60
2019-04-29T15:35:13.619Z,14.50
2019-04-29T15:38:03.912Z,14.50
2019-04-29T15:40:42.823Z,14.40
2019-04-29T15:43:06.026Z,14.40
2019-04-29T15:45:40.869Z,14.60
2019-04-29T15:48:12.803Z,14.50
2019-04-29T15:50:47.260Z,14.40
2019-04-29T15:53:18.051Z,14.40
2019-04-29T15:55:49.954Z,14.30
2019-04-29T15:58:31.496Z,14.10
2019-04-29T16:01:12.935Z,14.20
2019-04-29T16:03:38.122Z,14.40
2019-04-29T16:09:50.608Z,14.60
2019-04-29T16:12:45.511Z,14.90
2019-04-29T16:15:27.987Z,14.70
2019-04-29T16:18:10.614Z,14.60
2019-04-29T16:20:45.215Z,14.50
2019-04-29T16:23:13.123Z,14.40
2019-04-29T16:25:52.268Z,14.50
2019-04-29T16:28:17.504Z,14.40
2019-04-29T16:30:47.384Z,14.30
2019-04-29T16:33:28.810Z,14.30
2019-04-29T16:35:57.555Z,14.20
2019-04-29T16:38:25.773Z,14.00
2019-04-29T16:41:19.631Z,13.80
2019-04-29T16:43:48.356Z,13.80
2019-04-29T16:46:35.576Z,13.70
2019-04-29T16:49:05.427Z,13.60
2019-04-29T16:51:36.577Z,13.40
2019-04-29T16:54:20.684Z,13.50
2019-04-29T16:56:54.535Z,13.50
2019-04-29T16:59:29.261Z,13.50
2019-04-29T17:01:54.456Z,13.60
2019-04-29T17:04:30.018Z,13.80
2019-04-29T17:07:18.668Z,14.10
2019-04-29T17:09:57.077Z,14.20
2019-04-29T17:12:36.194Z,14.50
2019-04-29T17:15:20.061Z,14.80
2019-04-29T17:17:37.025Z,14.90
2019-04-29T17:20:08.208Z,14.90
2019-04-29T17:22:49.696Z,14.90
2019-04-29T17:25:19.359Z,14.80
2019-04-29T17:28:12.011Z,14.70
2019-04-29T17:31:31.903Z,14.70
2019-04-29T17:34:29.383Z,14.60
2019-04-29T17:35:17.103Z,14.40
2019-04-29T17:36:54.348Z,14.40
2019-04-29T17:39:35.179Z,14.30
2019-04-29T17:41:58.390Z,14.30
2019-04-29T17:44:36.901Z,14.20
2019-04-29T17:47:25.129Z,14.10
2019-04-29T17:50:06.746Z,14.00
2019-04-29T17:52:35.295Z,14.10
2019-04-29T17:55:25.043Z,14.00
2019-04-29T17:58:19.767Z,13.90
2019-04-29T18:01:15.361Z,13.90
2019-04-29T18:04:01.603Z,13.90
2019-04-29T18:06:58.696Z,13.80
2019-04-29T18:09:59.140Z,13.80
2019-04-29T18:12:45.504Z,13.60
2019-04-29T18:15:51.871Z,13.50
2019-04-29T18:18:04.781Z,13.50
2019-04-29T18:21:06.381Z,13.40
2019-04-29T18:24:29.440Z,13.30
2019-04-29T18:27:08.684Z,13.30
2019-04-29T18:30:38.454Z,13.20
2019-04-29T18:32:50.061Z,13.20
2019-04-29T18:35:30.393Z,13.20
2019-04-29T18:38:22.962Z,13.10
2019-04-29T18:41:28.569Z,13.00
2019-04-29T18:44:18.727Z,12.90
2019-04-29T18:46:53.873Z,12.80
2019-04-29T18:49:53.239Z,12.70
2019-04-29T18:53:28.405Z,12.60
2019-04-29T18:56:05.110Z,12.50
2019-04-29T18:58:42.036Z,12.40
2019-04-29T19:01:19.668Z,12.30
2019-04-29T19:06:59.066Z,12.20
2019-04-29T19:09:35.722Z,12.10
2019-04-29T19:12:02.297Z,12.10
2019-04-29T19:14:47.635Z,11.90
2019-04-29T19:17:22.420Z,11.90
2019-04-29T19:19:55.410Z,11.80
2019-04-29T19:22:25.919Z,11.80
2019-04-29T19:25:03.087Z,11.80
2019-04-29T19:27:37.168Z,11.80
2019-04-29T19:30:16.061Z,11.80
2019-04-29T19:32:46.899Z,11.80
2019-04-29T19:35:16.947Z,11.70
2019-04-29T19:37:56.991Z,11.70
2019-04-29T19:40:41.392Z,11.60
2019-04-29T19:43:10.198Z,11.60
2019-04-29T19:45:48.858Z,11.60
2019-04-29T19:48:22.546Z,11.60
2019-04-29T19:51:13.909Z,11.60
2019-04-29T19:53:29.616Z,11.60
2019-04-29T19:56:04.901Z,11.50
2019-04-29T19:58:39.240Z,11.60
2019-04-29T20:01:26.595Z,11.60
2019-04-29T20:03:59.206Z,11.60
2019-04-29T20:06:36.793Z,11.60
2019-04-29T20:09:17.148Z,11.60
2019-04-29T20:11:43.633Z,11.60
2019-04-29T20:14:21.321Z,11.70
2019-04-29T20:17:18.333Z,11.70
2019-04-29T20:20:09.609Z,11.80
2019-04-29T20:22:51.238Z,12.00
2019-04-29T20:25:30.294Z,12.10
2019-04-29T20:28:05.425Z,12.00
2019-04-29T20:30:30.430Z,12.00
2019-04-29T20:33:12.303Z,12.10
2019-04-29T20:35:45.365Z,12.10
2019-04-29T20:38:15.553Z,12.10
2019-04-29T20:40:47.139Z,12.10
2019-04-29T20:43:25.957Z,12.10
2019-04-29T20:46:02.332Z,12.00
2019-04-29T20:48:31.549Z,12.00
2019-04-29T20:51:11.471Z,12.00
2019-04-29T20:53:40.072Z,12.00
2019-04-29T20:59:15.593Z,12.00
2019-04-29T21:01:51.233Z,12.00
2019-04-29T21:04:31.869Z,11.90
2019-04-29T21:07:04.017Z,11.90
2019-04-29T21:09:35.653Z,11.90
2019-04-29T21:12:38.310Z,11.80
2019-04-29T21:15:16.335Z,11.80
2019-04-29T21:17:47.318Z,11.80
2019-04-29T21:20:16.076Z,11.70
2019-04-29T21:22:52.300Z,11.70
2019-04-29T21:25:19.644Z,11.70
2019-04-29T21:27:52.680Z,11.70
2019-04-29T21:30:27.236Z,11.60
2019-04-29T21:32:55.789Z,11.60
2019-04-29T21:35:36.151Z,11.60
2019-04-29T21:38:37.735Z,11.50
2019-04-29T21:41:35.894Z,11.50
2019-04-29T21:44:12.781Z,11.40
2019-04-29T21:46:38.177Z,11.40
2019-04-29T21:49:11.681Z,11.30
2019-04-29T21:51:46.606Z,11.40
2019-04-29T21:54:21.034Z,11.30
2019-04-29T21:56:59.964Z,11.30
2019-04-29T21:59:41.443Z,11.30
2019-04-29T22:02:15.285Z,11.30
2019-04-29T22:04:47.333Z,11.20
2019-04-29T22:07:19.327Z,11.20
2019-04-29T22:09:55.658Z,11.20
2019-04-29T22:12:34.927Z,11.20
2019-04-29T22:15:08.303Z,11.10
2019-04-29T22:17:56.155Z,11.20
2019-04-29T22:20:27.674Z,11.10
2019-04-29T22:23:13.248Z,11.10
2019-04-29T22:25:45.557Z,11.10
2019-04-29T22:28:16.031Z,11.10
2019-04-29T22:30:54.702Z,11.00
2019-04-29T22:33:38.460Z,11.00
2019-04-29T22:36:05.378Z,10.90
2019-04-29T22:41:52.770Z,10.90
2019-04-29T22:44:30.621Z,10.90
2019-04-29T22:47:00.626Z,10.80
2019-04-29T22:49:29.441Z,10.80
2019-04-29T22:52:08.944Z,10.80
2019-04-29T22:54:38.569Z,10.80
2019-04-29T22:57:07.200Z,10.70
2019-04-29T22:59:35.848Z,10.60
2019-04-29T23:02:05.834Z,10.60
2019-04-29T23:04:49.049Z,10.60
2019-04-29T23:07:22.208Z,10.50
2019-04-29T23:09:52.926Z,10.40
2019-04-29T23:12:40.682Z,10.50
2019-04-29T23:15:15.126Z,10.40
2019-04-29T23:17:46.616Z,10.30
2019-04-29T23:20:46.811Z,10.30
2019-04-29T23:23:38.364Z,10.00
2019-04-29T23:26:04.187Z,9.80
2019-04-29T23:28:35.827Z,9.70
2019-04-29T23:31:06.972Z,9.70
2019-04-29T23:33:39.042Z,9.50
2019-04-29T23:36:14.240Z,9.50
2019-04-29T23:38:45.224Z,9.30
2019-04-29T23:41:19.975Z,9.10
2019-04-29T23:44:08.740Z,9.10
2019-04-29T23:46:47.196Z,9.20
2019-04-29T23:49:34.797Z,9.00
2019-04-29T23:52:06.769Z,8.90
2019-04-29T23:54:52.972Z,8.90
2019-04-29T23:57:33.403Z,8.70
